Time;durP1;ratioP1;P1;durP2;ratioP2;P2;SDS_P1;SDS_P2;PMS_P1;PMS_P2;Temp;Humidity;BMP_temperature;BMP_pressure;BME280_temperature;BME280_humidity;BME280_pressure;Samples;Min_cycle;Max_cycle;Signal;HPM_P1;HPM_P2
2022/07/19 00:02:32;;;;;;;1.40;0.90;;;25.60;42.70;;;;;;6243517;28;20962;-44
2022/07/19 00:05:34;;;;;;;1.33;0.80;;;25.60;42.80;;;;;;6248918;28;20048;-45
2022/07/19 00:08:37;;;;;;;1.10;1.00;;;25.60;42.80;;;;;;6248346;28;20125;-45
2022/07/19 00:11:38;;;;;;;0.77;0.77;;;25.60;42.90;;;;;;6250397;28;20881;-43
2022/07/19 00:14:44;;;;;;;0.93;0.85;;;25.60;43.00;;;;;;6237777;28;20068;-45
2022/07/19 00:17:47;;;;;;;1.55;1.20;;;25.60;43.00;;;;;;6248321;28;20028;-44
2022/07/19 00:20:49;;;;;;;1.23;1.13;;;25.60;43.00;;;;;;6228343;28;20033;-43
2022/07/19 00:23:51;;;;;;;1.80;1.20;;;25.60;43.70;;;;;;6230135;28;20929;-45
2022/07/19 00:26:53;;;;;;;1.35;1.05;;;25.50;43.10;;;;;;6251421;28;20121;-43
2022/07/19 00:29:54;;;;;;;1.15;1.05;;;25.60;43.20;;;;;;6250820;28;20041;-46
2022/07/19 00:32:56;;;;;;;1.10;1.00;;;25.60;43.30;;;;;;6254527;28;20102;-46
2022/07/19 00:35:57;;;;;;;1.25;1.13;;;25.60;43.30;;;;;;6256426;28;20083;-45
2022/07/19 00:38:59;;;;;;;1.30;1.20;;;25.50;43.20;;;;;;6254378;28;20119;-44
2022/07/19 00:42:01;;;;;;;1.83;1.30;;;25.60;43.40;;;;;;6255681;28;21715;-43
2022/07/19 00:45:03;;;;;;;1.05;0.85;;;25.60;43.40;;;;;;6255912;28;20067;-45
2022/07/19 00:48:05;;;;;;;0.90;0.80;;;25.60;43.50;;;;;;6255701;28;20077;-47
2022/07/19 00:51:07;;;;;;;1.20;1.00;;;25.50;43.40;;;;;;6253569;28;20075;-44
2022/07/19 00:54:12;;;;;;;1.50;1.20;;;25.70;43.50;;;;;;6254875;28;20075;-45
2022/07/19 00:57:15;;;;;;;1.50;1.23;;;25.60;43.50;;;;;;6251439;28;20040;-46
2022/07/19 01:00:18;;;;;;;1.30;1.20;;;25.60;43.60;;;;;;6258868;28;20040;-45
2022/07/19 01:03:20;;;;;;;1.17;0.95;;;25.60;43.60;;;;;;6252628;28;21045;-44
2022/07/19 01:06:22;;;;;;;1.30;1.20;;;25.60;43.50;;;;;;6255336;28;20028;-44
2022/07/19 01:09:24;;;;;;;1.15;1.00;;;25.60;43.60;;;;;;6255051;28;20126;-45
2022/07/19 01:12:26;;;;;;;1.17;0.90;;;25.60;43.60;;;;;;6254621;28;20068;-43
2022/07/19 01:15:28;;;;;;;2.13;1.20;;;25.40;43.40;;;;;;6251624;28;20151;-45
2022/07/19 01:18:29;;;;;;;1.05;0.90;;;25.60;43.70;;;;;;6257482;28;20036;-46
2022/07/19 01:21:31;;;;;;;1.45;1.10;;;25.60;43.60;;;;;;6256557;28;20039;-44
2022/07/19 01:24:37;;;;;;;1.42;1.08;;;25.60;43.70;;;;;;6256675;28;20151;-45
2022/07/19 01:27:40;;;;;;;1.23;1.00;;;25.60;43.60;;;;;;6258009;28;20044;-44
2022/07/19 01:30:41;;;;;;;1.20;1.10;;;25.50;43.60;;;;;;6240558;28;21028;-46
2022/07/19 01:33:44;;;;;;;1.10;1.00;;;25.50;43.60;;;;;;6251504;28;20760;-45
2022/07/19 01:36:46;;;;;;;1.60;1.25;;;25.60;43.70;;;;;;6229336;28;20851;-45
2022/07/19 01:39:48;;;;;;;1.38;1.02;;;25.50;43.70;;;;;;6248020;28;20301;-45
2022/07/19 01:42:50;;;;;;;1.27;1.10;;;25.60;43.70;;;;;;6242743;28;20143;-47
2022/07/19 01:45:55;;;;;;;1.27;1.00;;;25.60;43.70;;;;;;6248950;28;20209;-46
2022/07/19 01:48:57;;;;;;;1.17;1.00;;;25.70;43.70;;;;;;6246663;28;20680;-46
2022/07/19 01:51:59;;;;;;;1.55;1.15;;;25.70;43.80;;;;;;6236642;28;20728;-45
2022/07/19 01:55:01;;;;;;;1.20;0.93;;;25.80;43.80;;;;;;6242971;28;20680;-42
2022/07/19 01:58:02;;;;;;;0.88;0.88;;;25.70;43.70;;;;;;6240856;28;20405;-43
2022/07/19 02:01:04;;;;;;;1.02;0.93;;;25.70;43.80;;;;;;6243246;28;20209;-47
2022/07/19 02:04:06;;;;;;;1.55;1.10;;;25.70;43.70;;;;;;6245557;28;20048;-43
2022/07/19 02:07:08;;;;;;;1.40;1.23;;;25.70;43.70;;;;;;6244153;28;20304;-48
2022/07/19 02:10:10;;;;;;;1.17;1.05;;;25.70;43.70;;;;;;6247280;28;20187;-45
2022/07/19 02:13:11;;;;;;;1.40;1.13;;;25.80;43.70;;;;;;6247904;28;20372;-48
2022/07/19 02:16:16;;;;;;;1.23;0.80;;;25.80;43.70;;;;;;6251111;28;20491;-46
2022/07/19 02:19:18;;;;;;;1.20;1.08;;;25.80;43.70;;;;;;6247439;28;20044;-47
2022/07/19 02:22:20;;;;;;;1.40;1.05;;;25.70;43.60;;;;;;6245658;28;20044;-45
2022/07/19 02:25:22;;;;;;;2.50;1.10;;;25.80;43.70;;;;;;6240995;28;20041;-46
2022/07/19 02:28:24;;;;;;;1.23;1.10;;;25.70;43.60;;;;;;6248063;28;20346;-46
2022/07/19 02:31:26;;;;;;;1.00;0.90;;;25.80;43.70;;;;;;6249304;28;20338;-45
2022/07/19 02:34:27;;;;;;;0.95;0.85;;;25.70;43.70;;;;;;6260948;28;21351;-43
2022/07/19 02:37:30;;;;;;;1.23;1.00;;;25.80;43.80;;;;;;6259561;28;20047;-42
2022/07/19 02:40:31;;;;;;;1.30;1.10;;;25.70;43.60;;;;;;6260934;28;20131;-43
2022/07/19 02:43:33;;;;;;;0.85;0.85;;;25.70;43.70;;;;;;6257197;28;20083;-45
2022/07/19 02:46:34;;;;;;;1.52;1.02;;;25.80;43.70;;;;;;6258644;28;20079;-44
2022/07/19 02:49:36;;;;;;;1.40;1.10;;;25.80;43.70;;;;;;6260166;28;20029;-46
2022/07/19 02:52:38;;;;;;;0.95;0.90;;;25.80;43.70;;;;;;6254763;28;20916;-43
2022/07/19 02:55:40;;;;;;;1.40;1.05;;;25.70;43.70;;;;;;6245618;28;20072;-45
2022/07/19 02:58:42;;;;;;;1.73;1.10;;;25.80;43.70;;;;;;6253101;28;20036;-43
2022/07/19 03:01:43;;;;;;;1.30;1.00;;;25.80;43.70;;;;;;6257619;28;20102;-43
2022/07/19 03:04:45;;;;;;;1.38;1.17;;;25.80;43.70;;;;;;6260731;28;20050;-46
2022/07/19 03:07:47;;;;;;;2.05;0.95;;;25.80;43.70;;;;;;6258333;28;20946;-45
2022/07/19 03:10:49;;;;;;;2.22;1.30;;;25.80;43.80;;;;;;6259967;28;20956;-44
2022/07/19 03:13:50;;;;;;;1.10;1.00;;;25.80;43.80;;;;;;6259732;28;20110;-45
2022/07/19 03:16:52;;;;;;;1.38;1.10;;;25.70;43.80;;;;;;6262673;28;20048;-44
2022/07/19 03:19:54;;;;;;;1.08;0.98;;;25.80;44.50;;;;;;6259179;28;20044;-50
2022/07/19 03:22:56;;;;;;;1.23;1.02;;;25.80;43.80;;;;;;6260709;28;20070;-43
2022/07/19 03:25:58;;;;;;;1.23;1.13;;;25.80;43.90;;;;;;6261842;28;20044;-44
2022/07/19 03:28:59;;;;;;;1.42;1.20;;;25.80;43.90;;;;;;6261808;28;20036;-44
2022/07/19 03:32:01;;;;;;;1.20;1.10;;;25.90;43.90;;;;;;6259726;28;21027;-43
2022/07/19 03:35:03;;;;;;;1.55;0.93;;;25.90;44.00;;;;;;6257363;28;20045;-47
2022/07/19 03:38:05;;;;;;;1.77;1.20;;;25.80;43.90;;;;;;6245848;28;20159;-46
2022/07/19 03:41:06;;;;;;;1.15;1.00;;;25.80;44.00;;;;;;6241701;28;20182;-43
2022/07/19 03:44:08;;;;;;;1.95;1.20;;;25.90;44.00;;;;;;6256320;28;20950;-43
2022/07/19 03:47:10;;;;;;;1.42;1.02;;;25.80;44.00;;;;;;6261406;28;20080;-43
2022/07/19 03:50:12;;;;;;;1.48;1.20;;;25.80;44.10;;;;;;6259621;28;20040;-42
2022/07/19 03:53:14;;;;;;;1.48;1.00;;;25.90;44.30;;;;;;6257667;28;20051;-48
2022/07/19 03:56:17;;;;;;;1.33;0.88;;;25.80;44.10;;;;;;6259625;28;20051;-49
2022/07/19 03:59:19;;;;;;;1.20;1.10;;;25.90;44.30;;;;;;6262576;28;20151;-42
2022/07/19 04:02:20;;;;;;;1.27;0.98;;;25.90;44.30;;;;;;6256745;28;20036;-45
2022/07/19 04:05:22;;;;;;;1.30;0.95;;;25.80;44.20;;;;;;6254238;28;20158;-44
2022/07/19 04:08:25;;;;;;;1.15;0.95;;;25.90;44.30;;;;;;6254896;28;20048;-43
2022/07/19 04:11:27;;;;;;;1.42;1.27;;;25.90;44.30;;;;;;6259132;28;20910;-42
2022/07/19 04:14:28;;;;;;;1.10;1.00;;;25.90;44.40;;;;;;6245039;28;20048;-43
2022/07/19 04:17:30;;;;;;;1.38;1.02;;;25.90;44.40;;;;;;6250130;28;20040;-43
2022/07/19 04:20:32;;;;;;;1.42;1.10;;;25.90;44.50;;;;;;6248662;28;20035;-48
2022/07/19 04:23:34;;;;;;;1.73;1.10;;;25.90;44.60;;;;;;6241184;28;20066;-45
2022/07/19 04:26:36;;;;;;;1.52;1.38;;;25.90;44.50;;;;;;6248454;28;20803;-46
2022/07/19 04:29:37;;;;;;;1.60;1.13;;;25.90;44.60;;;;;;6243668;28;20047;-45
2022/07/19 04:32:39;;;;;;;1.25;1.15;;;25.90;44.60;;;;;;6245042;28;20143;-47
2022/07/19 04:35:41;;;;;;;1.50;1.15;;;25.80;44.60;;;;;;6250555;28;20048;-45
2022/07/19 04:38:43;;;;;;;0.77;0.77;;;25.90;44.80;;;;;;6253965;28;20117;-45
2022/07/19 04:41:44;;;;;;;1.40;1.00;;;25.90;44.80;;;;;;6252539;28;20194;-47
2022/07/19 04:44:46;;;;;;;1.63;0.95;;;25.90;44.80;;;;;;6253203;28;20098;-43
2022/07/19 04:47:48;;;;;;;1.67;0.98;;;25.90;44.80;;;;;;6253348;28;20036;-44
2022/07/19 04:50:49;;;;;;;1.50;1.02;;;25.90;44.90;;;;;;6251723;28;20048;-47
2022/07/19 04:53:51;;;;;;;1.27;1.00;;;25.90;44.90;;;;;;6254059;28;20990;-45
2022/07/19 04:56:53;;;;;;;1.90;1.00;;;25.90;45.00;;;;;;6248668;28;20223;-43
2022/07/19 04:59:54;;;;;;;1.92;0.85;;;25.90;45.00;;;;;;6249958;28;20040;-42
2022/07/19 05:02:57;;;;;;;1.77;1.15;;;25.90;45.00;;;;;;6249660;28;21026;-45
2022/07/19 05:05:58;;;;;;;1.05;0.98;;;25.90;45.10;;;;;;6253647;28;20039;-42
2022/07/19 05:09:01;;;;;;;1.80;1.10;;;25.90;45.20;;;;;;6250828;28;20868;-46
2022/07/19 05:12:05;;;;;;;1.15;1.02;;;25.80;45.10;;;;;;6250640;28;20993;-44
2022/07/19 05:15:08;;;;;;;1.60;1.10;;;25.80;45.20;;;;;;6254930;28;20052;-47
2022/07/19 05:18:20;;;;;;;1.25;0.90;;;25.90;45.30;;;;;;6236499;28;20042;-46
2022/07/19 05:21:22;;;;;;;1.63;1.10;;;25.90;45.30;;;;;;6247293;28;20082;-45
2022/07/19 05:24:24;;;;;;;1.85;1.42;;;25.90;45.40;;;;;;6250488;28;20024;-47
2022/07/19 05:27:25;;;;;;;1.77;1.20;;;25.90;45.40;;;;;;6251939;28;20043;-42
2022/07/19 05:30:27;;;;;;;1.27;1.00;;;25.90;45.50;;;;;;6251977;28;21205;-45
2022/07/19 05:33:28;;;;;;;1.30;1.10;;;25.90;45.50;;;;;;6250587;28;20032;-42
2022/07/19 05:36:30;;;;;;;2.13;1.40;;;25.90;45.60;;;;;;6255263;28;20094;-44
2022/07/19 05:39:35;;;;;;;0.98;0.80;;;25.80;45.50;;;;;;6258536;28;20075;-45
2022/07/19 05:42:37;;;;;;;1.38;1.00;;;26.00;45.80;;;;;;6249974;28;20040;-48
2022/07/19 05:45:38;;;;;;;1.10;1.00;;;25.90;45.70;;;;;;6258058;28;20083;-45
2022/07/19 05:48:40;;;;;;;1.65;1.00;;;25.90;45.70;;;;;;6253139;28;20082;-53
2022/07/19 05:51:42;;;;;;;1.80;1.10;;;26.00;45.90;;;;;;6248950;28;20044;-43
2022/07/19 05:54:44;;;;;;;2.05;1.20;;;25.80;45.80;;;;;;6249089;28;20047;-44
2022/07/19 05:57:46;;;;;;;1.88;1.20;;;26.00;46.00;;;;;;6251128;28;20056;-45
2022/07/19 06:04:04;;;;;;;1.20;0.90;;;26.00;46.10;;;;;;6227672;28;20047;-43
2022/07/19 06:07:06;;;;;;;3.63;1.30;;;25.90;46.00;;;;;;6241948;28;20044;-43
2022/07/19 06:10:09;;;;;;;1.70;1.10;;;26.00;46.10;;;;;;6240435;28;20047;-45
2022/07/19 06:13:11;;;;;;;1.67;1.20;;;26.00;46.20;;;;;;6238165;28;20055;-47
2022/07/19 06:16:13;;;;;;;2.20;1.35;;;26.00;46.30;;;;;;6241507;28;20044;-46
2022/07/19 06:19:17;;;;;;;3.47;1.40;;;26.00;46.30;;;;;;6225215;28;20237;-45
2022/07/19 06:22:19;;;;;;;2.85;1.30;;;26.00;46.40;;;;;;6236102;28;20047;-46
2022/07/19 06:25:21;;;;;;;1.90;1.55;;;26.00;46.60;;;;;;6243133;28;20047;-46
2022/07/19 06:28:23;;;;;;;2.33;1.50;;;26.10;46.80;;;;;;6228935;28;20142;-43
2022/07/19 06:31:24;;;;;;;1.40;1.30;;;26.00;46.80;;;;;;6228719;28;20082;-45
2022/07/19 06:34:26;;;;;;;2.83;1.50;;;26.10;47.00;;;;;;6222327;28;20040;-44
2022/07/19 06:37:28;;;;;;;1.98;1.42;;;26.10;47.70;;;;;;6215821;28;20044;-44
2022/07/19 06:40:30;;;;;;;1.80;1.33;;;26.00;47.10;;;;;;6225996;28;20966;-49
2022/07/19 06:43:32;;;;;;;2.55;1.20;;;26.10;47.20;;;;;;6215445;28;20142;-45
2022/07/19 06:46:34;;;;;;;2.00;1.20;;;26.00;47.90;;;;;;6194293;28;20036;-47
2022/07/19 06:49:38;;;;;;;1.77;1.40;;;26.10;47.40;;;;;;6185137;28;20159;-47
2022/07/19 06:52:40;;;;;;;1.38;1.20;;;26.10;47.50;;;;;;6173501;28;20253;-44
2022/07/19 06:55:42;;;;;;;1.63;1.52;;;26.20;47.60;;;;;;6191371;28;20165;-43
2022/07/19 06:58:44;;;;;;;1.48;1.17;;;26.10;47.70;;;;;;6170866;28;20097;-44
2022/07/19 07:01:45;;;;;;;1.30;1.08;;;26.20;47.80;;;;;;6147136;28;20370;-43
2022/07/19 07:04:47;;;;;;;2.00;1.25;;;26.10;47.80;;;;;;6141044;28;20089;-43
2022/07/19 07:07:51;;;;;;;1.33;1.17;;;26.00;47.90;;;;;;6092713;28;20044;-46
2022/07/19 07:10:53;;;;;;;1.70;1.30;;;26.00;48.00;;;;;;6122206;28;20222;-43
2022/07/19 07:13:55;;;;;;;1.60;1.40;;;26.20;48.20;;;;;;6140020;28;20036;-43
2022/07/19 07:16:57;;;;;;;2.78;1.50;;;26.20;48.50;;;;;;6111421;28;20266;-44
2022/07/19 07:19:59;;;;;;;2.17;1.50;;;26.20;48.50;;;;;;6126364;28;20049;-45
2022/07/19 07:23:01;;;;;;;2.22;1.60;;;26.20;48.50;;;;;;6121356;28;20157;-45
2022/07/19 07:26:03;;;;;;;2.65;1.80;;;26.30;48.70;;;;;;6115763;28;20040;-46
2022/07/19 07:29:08;;;;;;;2.22;1.90;;;26.30;48.90;;;;;;6093958;28;20082;-44
2022/07/19 07:32:10;;;;;;;2.78;1.90;;;26.30;49.00;;;;;;6110850;28;20498;-44
2022/07/19 07:35:11;;;;;;;2.33;2.13;;;26.30;49.20;;;;;;6107476;28;20079;-46
2022/07/19 07:38:13;;;;;;;3.47;2.63;;;26.20;49.40;;;;;;6103750;28;20220;-43
2022/07/19 07:41:19;;;;;;;4.15;3.08;;;26.20;49.50;;;;;;6142276;28;20370;-46
2022/07/19 07:44:41;;;;;;;4.30;3.55;;;26.50;50.00;;;;;;6081332;28;21608;-45
2022/07/19 07:47:42;;;;;;;3.75;3.45;;;26.20;50.00;;;;;;6095785;28;20050;-45
2022/07/19 07:50:44;;;;;;;3.92;3.63;;;26.30;50.20;;;;;;6135985;28;20061;-46
2022/07/19 07:53:46;;;;;;;5.00;4.40;;;26.30;50.40;;;;;;6101386;28;20055;-43
2022/07/19 07:56:48;;;;;;;4.63;4.22;;;26.40;50.80;;;;;;6124092;28;20056;-44
2022/07/19 07:59:50;;;;;;;5.20;4.70;;;26.30;50.80;;;;;;6078076;28;20047;-45
2022/07/19 08:02:52;;;;;;;5.18;4.78;;;26.40;51.00;;;;;;6043779;28;20036;-47
2022/07/19 08:05:54;;;;;;;5.40;4.90;;;26.40;51.30;;;;;;6080649;28;20043;-43
2022/07/19 08:08:55;;;;;;;5.50;5.03;;;26.40;51.40;;;;;;6067672;28;20212;-44
2022/07/19 08:11:58;;;;;;;6.25;5.70;;;26.40;51.60;;;;;;6002364;28;20056;-46
2022/07/19 08:14:59;;;;;;;6.40;5.82;;;26.40;51.80;;;;;;6047413;28;20190;-44
2022/07/19 08:18:01;;;;;;;5.90;5.40;;;26.40;52.10;;;;;;6100120;28;20044;-44
2022/07/19 08:21:02;;;;;;;6.22;5.72;;;26.40;52.20;;;;;;6099607;28;20048;-42
2022/07/19 08:24:05;;;;;;;6.85;6.25;;;26.40;52.40;;;;;;6067495;28;20483;-46
2022/07/19 08:27:14;;;;;;;6.45;5.85;;;26.40;52.60;;;;;;6048452;28;20128;-44
2022/07/19 08:30:16;;;;;;;6.50;6.00;;;26.40;52.70;;;;;;6040451;28;23017;-48
2022/07/19 08:33:18;;;;;;;7.15;6.55;;;26.50;53.00;;;;;;6065087;28;20032;-49
2022/07/19 08:36:20;;;;;;;6.68;6.07;;;26.40;53.10;;;;;;6039531;28;21598;-47
2022/07/19 08:39:21;;;;;;;6.25;5.75;;;26.40;53.40;;;;;;6069356;28;20048;-44
2022/07/19 08:42:25;;;;;;;6.30;5.80;;;26.40;53.50;;;;;;6054743;28;20044;-44
2022/07/19 08:45:37;;;;;;;6.97;6.43;;;26.40;53.70;;;;;;6042078;28;20051;-44
2022/07/19 08:48:39;;;;;;;6.93;6.32;;;26.40;53.90;;;;;;6095363;28;20042;-44
2022/07/19 08:51:49;;;;;;;7.00;6.30;;;26.50;54.20;;;;;;6068141;28;20201;-49
2022/07/19 08:54:51;;;;;;;6.35;5.85;;;26.30;55.00;;;;;;6067364;28;20036;-46
2022/07/19 08:58:01;;;;;;;7.28;6.57;;;26.40;54.90;;;;;;6061885;28;20044;-50
2022/07/19 09:01:03;;;;;;;7.57;6.97;;;26.40;55.50;;;;;;6067058;28;20044;-44
2022/07/19 09:04:09;;;;;;;7.15;6.55;;;26.50;56.00;;;;;;6099586;28;20048;-45
2022/07/19 09:07:18;;;;;;;6.68;6.18;;;26.50;56.40;;;;;;6091468;28;20052;-44
2022/07/19 09:10:22;;;;;;;7.05;6.45;;;26.50;56.70;;;;;;6103386;28;20158;-44
2022/07/19 09:13:24;;;;;;;6.00;5.50;;;26.50;57.20;;;;;;6061531;28;20040;-48
2022/07/19 09:16:26;;;;;;;6.35;5.85;;;26.50;57.50;;;;;;6100067;28;20048;-46
2022/07/19 09:19:29;;;;;;;5.90;5.40;;;26.50;57.80;;;;;;6105807;28;20590;-44
2022/07/19 09:22:31;;;;;;;5.97;5.47;;;26.50;58.10;;;;;;6112469;28;20040;-48
2022/07/19 09:25:36;;;;;;;6.22;5.68;;;26.60;58.40;;;;;;6125169;28;20044;-45
2022/07/19 09:28:38;;;;;;;5.82;5.43;;;26.50;58.70;;;;;;6150433;28;21662;-44
2022/07/19 09:31:58;;;;;;;5.63;5.13;;;26.50;58.90;;;;;;6141199;28;20162;-49
2022/07/19 09:35:01;;;;;;;5.90;5.40;;;26.50;59.30;;;;;;6093427;28;20227;-43
2022/07/19 09:38:20;;;;;;;5.55;5.05;;;26.60;59.40;;;;;;6083644;28;20182;-46
2022/07/19 09:41:22;;;;;;;5.55;5.15;;;26.60;59.70;;;;;;6123755;28;20183;-45
2022/07/19 09:44:24;;;;;;;5.47;4.85;;;26.50;59.60;;;;;;6085175;28;20170;-45
2022/07/19 09:47:34;;;;;;;5.53;5.03;;;26.60;59.80;;;;;;6111929;28;20969;-44
2022/07/19 09:50:36;;;;;;;5.00;4.60;;;26.60;60.00;;;;;;6061346;28;20044;-46
2022/07/19 09:53:38;;;;;;;4.85;4.45;;;26.60;59.90;;;;;;6075651;28;23859;-45
2022/07/19 09:56:43;;;;;;;4.93;4.53;;;26.60;60.20;;;;;;6122075;28;20052;-45
2022/07/19 09:59:51;;;;;;;4.85;4.45;;;26.60;60.30;;;;;;6096328;28;20044;-44
2022/07/19 10:02:54;;;;;;;4.28;3.97;;;26.60;60.50;;;;;;6079335;28;20044;-44
2022/07/19 10:05:57;;;;;;;4.63;4.22;;;26.60;60.60;;;;;;6081993;28;20048;-44
2022/07/19 10:08:59;;;;;;;3.95;3.65;;;26.60;60.60;;;;;;6071265;28;21170;-45
2022/07/19 10:12:01;;;;;;;4.68;4.28;;;26.60;60.70;;;;;;6091738;28;20190;-50
2022/07/19 10:15:04;;;;;;;4.47;4.07;;;26.60;60.70;;;;;;6145288;28;20044;-44
2022/07/19 10:18:12;;;;;;;4.28;3.97;;;26.50;60.60;;;;;;6072302;28;20615;-44
2022/07/19 10:21:14;;;;;;;3.80;3.50;;;26.50;60.70;;;;;;6083602;28;20241;-47
2022/07/19 10:24:43;;;;;;;3.95;3.65;;;26.60;60.80;;;;;;6120736;28;20337;-48
2022/07/19 10:27:47;;;;;;;3.97;3.58;;;26.50;60.90;;;;;;6115755;28;22297;-46
2022/07/19 10:30:54;;;;;;;3.28;3.05;;;26.60;61.00;;;;;;6115045;28;20265;-45
2022/07/19 10:34:00;;;;;;;3.80;3.45;;;26.70;61.00;;;;;;6111093;28;20342;-44
2022/07/19 10:37:02;;;;;;;3.70;3.40;;;26.50;60.90;;;;;;6095631;28;21578;-43
2022/07/19 10:40:04;;;;;;;3.33;3.03;;;26.50;60.90;;;;;;6121454;28;20155;-44
2022/07/19 10:43:07;;;;;;;3.10;2.90;;;26.50;60.90;;;;;;6169078;28;20044;-46
2022/07/19 10:46:11;;;;;;;3.30;3.10;;;26.40;60.90;;;;;;6169582;28;20040;-42
2022/07/19 10:49:48;;;;;;;3.80;3.50;;;26.60;61.20;;;;;;6148441;28;20135;-46
2022/07/19 10:52:49;;;;;;;3.35;3.05;;;26.50;61.50;;;;;;6158313;28;20116;-45
2022/07/19 10:56:15;;;;;;;4.93;3.15;;;26.60;61.50;;;;;;6173168;28;20036;-45
2022/07/19 10:59:32;;;;;;;3.13;2.83;;;26.50;61.90;;;;;;6150289;28;21497;-44
2022/07/19 11:02:34;;;;;;;2.92;2.72;;;26.50;62.10;;;;;;6155366;28;20043;-43
2022/07/19 11:05:48;;;;;;;2.85;2.65;;;26.50;62.10;;;;;;6178996;28;20409;-44
2022/07/19 11:08:54;;;;;;;4.15;3.33;;;26.40;62.30;;;;;;6186039;28;20040;-44
2022/07/19 11:11:55;;;;;;;3.40;2.80;;;26.50;62.70;;;;;;6170328;28;20092;-46
2022/07/19 11:14:58;;;;;;;2.70;2.50;;;26.40;62.80;;;;;;6182482;28;20753;-44
2022/07/19 11:18:17;;;;;;;2.58;2.38;;;26.50;63.20;;;;;;6180424;28;20040;-45
2022/07/19 11:21:19;;;;;;;3.05;2.80;;;26.40;63.40;;;;;;6188498;28;20043;-47
2022/07/19 11:24:21;;;;;;;2.58;2.38;;;26.40;64.30;;;;;;6180302;28;20115;-43
2022/07/19 11:27:24;;;;;;;2.92;2.72;;;26.40;63.90;;;;;;6185068;28;20056;-46
2022/07/19 11:30:27;;;;;;;2.72;2.53;;;26.30;64.00;;;;;;6188620;28;20041;-45
2022/07/19 11:33:29;;;;;;;2.40;2.20;;;26.40;64.30;;;;;;6173825;28;21140;-44
2022/07/19 11:36:31;;;;;;;2.60;2.40;;;26.40;64.40;;;;;;6181783;28;20048;-45
2022/07/19 11:39:46;;;;;;;2.60;2.40;;;26.50;64.50;;;;;;6171244;28;20048;-47
2022/07/19 11:42:50;;;;;;;2.90;2.70;;;26.40;64.60;;;;;;6141506;28;20040;-44
2022/07/19 11:46:16;;;;;;;2.50;2.30;;;26.50;64.50;;;;;;6112244;28;20045;-45
2022/07/19 11:49:19;;;;;;;2.70;2.50;;;26.50;64.50;;;;;;6157526;28;20304;-44
2022/07/19 11:52:20;;;;;;;3.03;2.55;;;26.50;64.50;;;;;;6128758;28;20160;-46
2022/07/19 11:55:24;;;;;;;2.80;2.60;;;26.40;64.40;;;;;;6113190;28;20072;-46
2022/07/19 11:58:25;;;;;;;3.10;2.83;;;26.50;64.60;;;;;;6086031;28;20047;-44
2022/07/19 12:01:31;;;;;;;2.90;2.70;;;26.40;64.90;;;;;;6123129;28;20048;-45
2022/07/19 12:04:37;;;;;;;2.85;2.65;;;26.40;64.50;;;;;;6061885;28;20120;-46
2022/07/19 12:07:45;;;;;;;3.38;3.08;;;26.50;64.70;;;;;;6096028;28;20055;-46
2022/07/19 12:10:53;;;;;;;3.05;2.67;;;26.40;64.50;;;;;;6071596;28;20044;-48
2022/07/19 12:13:57;;;;;;;2.92;2.72;;;26.50;64.50;;;;;;6116232;28;20040;-45
2022/07/19 12:17:15;;;;;;;3.00;2.80;;;26.50;64.30;;;;;;6092270;28;21117;-45
2022/07/19 12:20:17;;;;;;;3.13;2.83;;;26.50;64.20;;;;;;6059205;28;20044;-46
2022/07/19 12:23:39;;;;;;;3.03;2.80;;;26.50;64.10;;;;;;6062832;28;20105;-44
2022/07/19 12:26:42;;;;;;;3.30;3.00;;;26.50;64.10;;;;;;6131844;28;20044;-44
2022/07/19 12:29:56;;;;;;;3.15;2.85;;;26.50;64.20;;;;;;6098533;28;20040;-44
2022/07/19 12:33:06;;;;;;;3.45;3.15;;;26.50;64.10;;;;;;6047047;28;22250;-44
2022/07/19 12:36:08;;;;;;;3.70;3.40;;;26.50;64.10;;;;;;6066748;28;20264;-42
2022/07/19 12:39:34;;;;;;;3.35;3.05;;;26.50;64.00;;;;;;6104015;28;20051;-45
2022/07/19 12:42:41;;;;;;;4.25;3.38;;;26.60;63.80;;;;;;6072615;28;31124;-42
2022/07/19 12:45:46;;;;;;;3.42;3.13;;;26.60;63.50;;;;;;6061178;28;20043;-42
2022/07/19 12:48:47;;;;;;;3.17;2.88;;;26.60;63.30;;;;;;6041769;28;20036;-44
2022/07/19 12:51:51;;;;;;;3.25;2.95;;;26.60;63.10;;;;;;6069926;28;20051;-42
2022/07/19 12:54:53;;;;;;;2.92;2.72;;;26.60;63.00;;;;;;6065288;28;20141;-44
2022/07/19 12:57:55;;;;;;;3.55;3.25;;;26.60;63.00;;;;;;6053067;28;20048;-45
2022/07/19 13:00:57;;;;;;;3.65;3.35;;;26.60;63.00;;;;;;6054690;28;20141;-43
2022/07/19 13:03:59;;;;;;;4.50;3.15;;;26.50;62.90;;;;;;6012373;28;20162;-46
2022/07/19 13:07:02;;;;;;;3.45;3.15;;;26.60;63.10;;;;;;6078698;28;23340;-42
2022/07/19 13:10:05;;;;;;;4.15;3.78;;;26.50;62.90;;;;;;6082175;28;20047;-44
2022/07/19 13:13:06;;;;;;;4.40;3.63;;;26.60;62.80;;;;;;6090429;28;20040;-45
2022/07/19 13:16:09;;;;;;;4.57;3.58;;;26.50;62.50;;;;;;6086454;28;20111;-42
2022/07/19 13:19:10;;;;;;;3.70;3.40;;;26.70;63.20;;;;;;6065532;28;20037;-45
2022/07/19 13:22:13;;;;;;;3.53;3.22;;;26.70;62.30;;;;;;6062693;28;20082;-45
2022/07/19 13:25:15;;;;;;;4.30;3.28;;;26.60;62.00;;;;;;6042375;28;20959;-45
2022/07/19 13:28:37;;;;;;;3.63;3.22;;;26.70;61.80;;;;;;6038225;28;21125;-44
2022/07/19 13:31:39;;;;;;;3.58;3.28;;;26.70;61.50;;;;;;6084989;28;20044;-47
2022/07/19 13:34:41;;;;;;;3.13;2.83;;;26.70;61.10;;;;;;6096693;28;20048;-43
2022/07/19 13:37:44;;;;;;;3.05;2.80;;;26.80;61.00;;;;;;6082434;28;20036;-46
2022/07/19 13:40:45;;;;;;;3.38;3.08;;;26.70;60.60;;;;;;6097300;28;20047;-53
2022/07/19 13:43:47;;;;;;;3.03;2.72;;;26.70;60.30;;;;;;6055800;28;20440;-45
2022/07/19 13:46:52;;;;;;;3.17;2.90;;;26.60;60.00;;;;;;6066367;28;20076;-45
2022/07/19 13:49:53;;;;;;;2.60;2.20;;;26.70;59.90;;;;;;6109621;28;20132;-44
2022/07/19 13:52:56;;;;;;;2.55;2.35;;;26.70;59.70;;;;;;6073500;28;20171;-45
2022/07/19 13:55:58;;;;;;;3.00;2.70;;;26.70;59.40;;;;;;6012397;28;21147;-44
2022/07/19 13:59:00;;;;;;;2.67;2.47;;;26.70;59.20;;;;;;6118092;28;20152;-48
2022/07/19 14:02:05;;;;;;;2.60;2.40;;;26.70;59.00;;;;;;6070124;28;21986;-46
2022/07/19 14:05:08;;;;;;;2.58;2.38;;;26.70;58.70;;;;;;6049623;28;20052;-46
2022/07/19 14:08:10;;;;;;;2.50;2.30;;;26.70;58.50;;;;;;6072148;28;20048;-44
2022/07/19 14:11:14;;;;;;;2.60;2.40;;;26.70;58.20;;;;;;6064363;28;20036;-43
2022/07/19 14:14:16;;;;;;;2.83;2.42;;;26.70;57.90;;;;;;6053019;28;20399;-46
2022/07/19 14:17:18;;;;;;;3.03;2.72;;;26.80;57.80;;;;;;6102651;28;20044;-44
2022/07/19 14:20:19;;;;;;;2.53;2.33;;;26.70;57.50;;;;;;6124196;28;20162;-45
2022/07/19 14:23:27;;;;;;;2.40;2.20;;;26.70;57.20;;;;;;6096313;28;20048;-46
2022/07/19 14:26:29;;;;;;;2.90;2.60;;;26.70;56.80;;;;;;6088889;28;21541;-45
2022/07/19 14:29:30;;;;;;;2.70;2.50;;;26.70;56.50;;;;;;6104426;28;20047;-45
2022/07/19 14:32:32;;;;;;;2.88;2.67;;;26.70;56.20;;;;;;6059570;28;20167;-49
2022/07/19 14:35:37;;;;;;;2.85;2.60;;;26.70;56.10;;;;;;6087801;28;21998;-48
2022/07/19 14:38:39;;;;;;;3.22;2.92;;;26.70;56.00;;;;;;6104050;28;20039;-47
2022/07/19 14:41:44;;;;;;;3.15;2.90;;;26.70;55.80;;;;;;6112823;28;20206;-48
2022/07/19 14:44:47;;;;;;;3.30;3.00;;;26.70;55.70;;;;;;6085057;28;20060;-51
2022/07/19 14:47:49;;;;;;;3.25;2.95;;;26.70;55.60;;;;;;6123600;28;20917;-50
2022/07/19 14:50:56;;;;;;;3.00;2.80;;;26.70;55.50;;;;;;6132915;28;20093;-50
2022/07/19 14:54:01;;;;;;;3.08;2.78;;;26.70;55.30;;;;;;6084700;28;20040;-48
2022/07/19 14:57:08;;;;;;;3.08;2.88;;;26.70;55.10;;;;;;6104503;28;22979;-49
2022/07/19 15:00:11;;;;;;;2.85;2.60;;;26.70;55.00;;;;;;6100211;28;20036;-50
2022/07/19 15:03:13;;;;;;;2.60;2.40;;;26.70;54.80;;;;;;6070416;28;20172;-47
2022/07/19 15:06:15;;;;;;;2.75;2.55;;;26.70;54.70;;;;;;6071120;28;21515;-45
2022/07/19 15:09:17;;;;;;;2.70;2.50;;;26.70;54.60;;;;;;6087124;28;20048;-50
2022/07/19 15:12:19;;;;;;;2.85;2.65;;;26.70;54.60;;;;;;6106131;28;20257;-52
2022/07/19 15:15:21;;;;;;;2.67;2.47;;;26.70;54.40;;;;;;6099924;28;20047;-44
2022/07/19 15:18:22;;;;;;;2.45;2.25;;;26.70;54.30;;;;;;5971759;28;20052;-50
2022/07/19 15:21:24;;;;;;;2.50;2.30;;;26.70;54.00;;;;;;6050820;28;20049;-50
2022/07/19 15:24:26;;;;;;;2.80;2.53;;;26.70;53.80;;;;;;6097011;28;20040;-49
2022/07/19 15:27:28;;;;;;;2.90;2.60;;;26.70;53.60;;;;;;6095754;28;21334;-49
2022/07/19 15:30:30;;;;;;;3.20;2.90;;;26.70;53.40;;;;;;6119347;28;20154;-46
2022/07/19 15:33:32;;;;;;;2.30;2.10;;;26.70;53.30;;;;;;6117623;28;20046;-48
2022/07/19 15:36:35;;;;;;;2.85;2.63;;;26.60;53.30;;;;;;6102577;28;26551;-47
2022/07/19 15:39:38;;;;;;;2.75;2.45;;;26.70;53.30;;;;;;6108301;28;20363;-48
2022/07/19 15:42:44;;;;;;;1.88;1.77;;;26.70;53.30;;;;;;6134620;28;20045;-51
2022/07/19 15:45:46;;;;;;;1.90;1.80;;;26.70;53.30;;;;;;6126343;28;22300;-47
2022/07/19 15:48:49;;;;;;;1.80;1.70;;;26.60;53.30;;;;;;6147992;28;20041;-50
2022/07/19 15:51:53;;;;;;;2.13;1.70;;;26.60;53.40;;;;;;6125297;28;20052;-50
2022/07/19 15:54:56;;;;;;;1.75;1.65;;;26.60;53.40;;;;;;6124797;28;20128;-51
2022/07/19 15:57:58;;;;;;;1.70;1.60;;;26.70;53.50;;;;;;6131281;28;20476;-48
2022/07/19 16:00:59;;;;;;;1.48;1.38;;;26.70;53.50;;;;;;6148545;28;20043;-51